Private Wetterstation Sandau
Wetterdaten: Juni 2012
Datum Temp. A. Feuchte A. Luftdruck Regen Wind Richtung Taupunkt Windchill
01.06.2012 12,3 C 62 % 1013,6 hPa 2,6 l/m 8,4 km/h (2 Bft) W-NW 5,0 C 12,3 C
02.06.2012 13,1 C 57 % 1014,2 hPa 0,0 l/m 7,0 km/h (2 Bft) W-NW 4,6 C 13,1 C
03.06.2012 11,3 C 72 % 1009,6 hPa 4,7 l/m 6,1 km/h (2 Bft) W-NW 6,2 C 11,1 C
04.06.2012 12,9 C 68 % 1010,5 hPa 2,1 l/m 6,2 km/h (2 Bft) W 6,7 C 12,9 C
05.06.2012 13,3 C 65 % 1016,7 hPa 3,6 l/m 6,9 km/h (2 Bft) W-NW 6,6 C 13,3 C
06.06.2012 12,8 C 72 % 1010,1 hPa 0,5 l/m 4,8 km/h (1 Bft) SO 7,5 C 12,8 C
07.06.2012 16,7 C 80 % 1006,4 hPa 0,5 l/m 5,0 km/h (1 Bft) S-SO 13,1 C 16,7 C
08.06.2012 20,1 C 62 % 1007,1 hPa 1,0 l/m 5,5 km/h (1 Bft) W-SW 12,3 C 20,1 C
09.06.2012 18,6 C 49 % 1012,6 hPa 0,0 l/m 5,7 km/h (1 Bft) W-SW 7,3 C 18,6 C
10.06.2012 19,0 C 50 % 1010,4 hPa 0,0 l/m 2,9 km/h (1 Bft) W-SW 8,1 C 19,0 C
11.06.2012 18,5 C 56 % 1004,9 hPa 0,0 l/m 4,0 km/h (1 Bft) O 9,3 C 18,5 C
12.06.2012 17,3 C 76 % 1003,6 hPa 36,3 l/m 3,0 km/h (1 Bft) O 12,9 C 17,3 C
13.06.2012 15,8 C 65 % 1013,2 hPa 0,0 l/m 3,2 km/h (1 Bft) W-NW 9,1 C 15,8 C
14.06.2012 16,0 C 60 % 1020,2 hPa 0,0 l/m 3,3 km/h (1 Bft) W 8,0 C 16,0 C
15.06.2012 18,7 C 65 % 1017,2 hPa 0,0 l/m 3,4 km/h (1 Bft) SO 11,7 C 18,7 C
16.06.2012 18,2 C 78 % 1015,6 hPa 2,6 l/m 7,1 km/h (2 Bft) S-SO 14,2 C 18,2 C
17.06.2012 19,7 C 59 % 1021,4 hPa 0,0 l/m 2,9 km/h (1 Bft) W-SW 11,3 C 19,7 C
18.06.2012 21,7 C 57 % 1016,3 hPa 0,0 l/m 9,8 km/h (2 Bft) O 12,4 C 21,7 C
19.06.2012 20,5 C 60 % 1020,8 hPa 0,5 l/m 3,4 km/h (1 Bft) O-NO 12,2 C 20,5 C
20.06.2012 15,5 C 89 % 1016,5 hPa 9,8 l/m 5,7 km/h (1 Bft) O-NO 13,6 C 15,5 C
21.06.2012 16,3 C 82 % 1013,5 hPa 0,0 l/m 3,7 km/h (1 Bft) O-NO 13,2 C 16,3 C
22.06.2012 20,2 C 58 % 1017,3 hPa 0,0 l/m 5,1 km/h (1 Bft) W-SW 11,1 C 20,2 C
23.06.2012 19,2 C 57 % 1022,2 hPa 0,0 l/m 6,3 km/h (2 Bft) W-SW 10,3 C 19,2 C
24.06.2012 16,6 C 71 % 1010,8 hPa 5,2 l/m 11,0 km/h (2 Bft) S-SW 11,0 C 16,6 C
25.06.2012 14,2 C 77 % 1011,0 hPa 4,7 l/m 17,0 km/h (3 Bft) W 10,2 C 14,2 C
26.06.2012 14,8 C 69 % 1018,8 hPa 0,0 l/m 14,7 km/h (3 Bft) W-NW 9,2 C 14,8 C
27.06.2012 15,1 C 84 % 1016,7 hPa 2,6 l/m 1,7 km/h (1 Bft) W-SW 12,3 C 15,1 C
28.06.2012 20,4 C 75 % 1012,8 hPa 0,0 l/m 3,9 km/h (1 Bft) O 15,6 C 20,4 C
29.06.2012 23,6 C 73 % 1009,9 hPa 7,3 l/m 3,6 km/h (1 Bft) S-SO 18,0 C 23,6 C
30.06.2012 24,0 C 62 % 1013,3 hPa 0,5 l/m 1,6 km/h (1 Bft) W 15,8 C 24,0 C
Min-Datum 02.06.12 09.06.12 12.06.12 16 Tage 01.06.12 - 01.06.12 02.06.12
Min-Zeit 05:11 17:46 05:21 - 04:26 - 20:46 03:21
Minimum 6,9 C 34 % 1002,5 hPa - 0,0 km/h (0 Bft) - 2,2 C 3,8 C
Max-Datum 29.06.12 28.06.12 19.06.12 12.06.12 18.06.12 - 29.06.12 29.06.12
Max-Zeit 16:21 06:51 09:56 13:16 19:01 - 12:31 16:21
Maximum 32,4 C 91 % 1023,2 hPa 36,3 l/m 36,7 km/h
O (5 Bft)
- 19,1 C 32,4 C
Durchschnitt 17,2 C 67 % 1013,6 hPa #84,4 l/m 5,8 km/h (1 Bft) W 10,6 C 17,2 C

Durchschnitt Minimum Temp.12,5 C
Durchschnitt Maximum Temp.21,6 C
(c) by David Heller